Time;durP1;ratioP1;P1;durP2;ratioP2;P2;SDS_P1;SDS_P2;PMS_P1;PMS_P2;Temp;Humidity;BMP_temperature;BMP_pressure;BME280_temperature;BME280_humidity;BME280_pressure;Samples;Min_cycle;Max_cycle;Signal;HPM_P1;HPM_P2
2021/10/01 00:01:56;;;;;;;;;;;13.70;99.90;;;;;;1839924;76;20512;-72
2021/10/01 00:04:23;;;;;;;;;;;13.70;99.90;;;;;;1841594;76;20135;-72
2021/10/01 00:06:50;;;;;;;;;;;13.70;99.90;;;;;;1844041;76;20166;-73
2021/10/01 00:09:17;;;;;;;;;;;13.80;99.90;;;;;;1840031;76;20239;-72
2021/10/01 00:11:49;;;;;;;;;;;13.70;99.90;;;;;;1841679;76;20181;-72
2021/10/01 00:14:12;;;;;;;;;;;13.70;99.90;;;;;;1837116;76;20206;-72
2021/10/01 00:16:39;;;;;;;;;;;13.60;99.90;;;;;;1841943;76;20915;-71
2021/10/01 00:19:06;;;;;;;;;;;13.70;99.90;;;;;;1841958;76;20172;-71
2021/10/01 00:21:33;;;;;;;;;;;13.60;99.90;;;;;;1844970;76;20411;-70
2021/10/01 00:23:59;;;;;;;;;;;13.60;99.90;;;;;;1847981;73;20215;-72
2021/10/01 00:26:26;;;;;;;;;;;13.60;99.90;;;;;;1885181;74;20178;-72
2021/10/01 00:28:53;;;;;;;;;;;13.60;99.90;;;;;;1892128;74;20490;-72
2021/10/01 00:31:20;;;;;;;;;;;13.60;99.90;;;;;;1889929;74;20198;-72
2021/10/01 00:33:47;;;;;;;;;;;13.60;99.90;;;;;;1883472;73;21229;-72
2021/10/01 00:36:13;;;;;;;;;;;13.60;99.90;;;;;;1927677;73;20129;-72
2021/10/01 00:38:40;;;;;;;;;;;13.50;99.90;;;;;;1926939;73;20456;-72
2021/10/01 00:41:07;;;;;;;;;;;13.60;99.90;;;;;;1922113;73;20214;-72
2021/10/01 00:43:34;;;;;;;;;;;13.60;99.90;;;;;;1926441;73;20528;-72
2021/10/01 00:46:01;;;;;;;;;;;13.50;99.90;;;;;;1926289;73;20211;-71
2021/10/01 00:48:27;;;;;;;;;;;13.60;99.90;;;;;;1922037;73;20119;-71
2021/10/01 00:50:54;;;;;;;;;;;13.60;99.90;;;;;;1921799;73;20164;-71
2021/10/01 00:53:21;;;;;;;;;;;13.50;99.90;;;;;;1919280;73;20168;-71
2021/10/01 00:55:48;;;;;;;;;;;13.50;99.90;;;;;;1924027;73;20123;-71
2021/10/01 00:58:15;;;;;;;;;;;13.40;99.90;;;;;;1923241;73;20212;-72
2021/10/01 01:01:09;;;;;;;;;;;13.40;99.90;;;;;;1923844;73;20125;-72
2021/10/01 01:03:19;;;;;;;;;;;13.40;99.90;;;;;;1921333;73;20517;-71
2021/10/01 01:05:48;;;;;;;;;;;13.50;99.90;;;;;;1923933;73;20176;-72
2021/10/01 01:08:16;;;;;;;;;;;13.40;99.90;;;;;;1923873;73;20820;-72
2021/10/01 01:10:44;;;;;;;;;;;13.50;99.90;;;;;;1924420;73;20216;-71
2021/10/01 01:13:13;;;;;;;;;;;13.50;99.90;;;;;;1929616;73;20651;-71
2021/10/01 01:15:41;;;;;;;;;;;13.40;99.90;;;;;;1920599;73;20472;-71
2021/10/01 01:18:08;;;;;;;;;;;13.30;99.90;;;;;;1921642;73;20186;-72
2021/10/01 01:20:37;;;;;;;;;;;13.40;99.90;;;;;;1923337;73;20412;-72
2021/10/01 01:23:08;;;;;;;;;;;13.30;99.90;;;;;;1917777;73;20223;-72
2021/10/01 01:25:52;;;;;;;;;;;13.30;99.90;;;;;;1923582;73;20110;-71
2021/10/01 01:28:30;;;;;;;;;;;13.40;99.90;;;;;;1891786;74;20121;-71
2021/10/01 01:30:58;;;;;;;;;;;13.30;99.90;;;;;;1922282;73;20221;-72
2021/10/01 01:33:25;;;;;;;;;;;13.30;99.90;;;;;;1925303;73;20109;-72
2021/10/01 01:35:53;;;;;;;;;;;13.40;99.90;;;;;;1923514;73;20210;-72
2021/10/01 01:38:25;;;;;;;;;;;13.40;99.90;;;;;;1928885;73;20177;-72
2021/10/01 01:40:53;;;;;;;;;;;13.30;99.90;;;;;;1922765;73;20507;-72
2021/10/01 01:43:21;;;;;;;;;;;13.30;99.90;;;;;;1925302;73;20169;-72
2021/10/01 01:45:47;;;;;;;;;;;13.40;99.90;;;;;;1924619;73;20331;-72
2021/10/01 01:48:15;;;;;;;;;;;13.30;99.90;;;;;;1925282;73;20179;-73
2021/10/01 01:50:43;;;;;;;;;;;13.30;99.90;;;;;;1927365;73;20167;-73
2021/10/01 01:53:11;;;;;;;;;;;13.30;99.90;;;;;;1924224;73;20185;-72
2021/10/01 01:55:38;;;;;;;;;;;13.30;99.90;;;;;;1920828;73;20155;-72
2021/10/01 01:58:05;;;;;;;;;;;13.30;99.90;;;;;;1927751;73;20162;-72
2021/10/01 02:00:32;;;;;;;;;;;13.30;99.90;;;;;;1922539;73;20169;-73
2021/10/01 02:03:00;;;;;;;;;;;13.30;99.90;;;;;;1923649;73;20128;-73
2021/10/01 02:05:27;;;;;;;;;;;13.30;99.90;;;;;;1923575;73;20161;-73
2021/10/01 02:07:55;;;;;;;;;;;13.40;99.90;;;;;;1921078;73;20257;-72
2021/10/01 02:10:23;;;;;;;;;;;13.40;99.90;;;;;;1926330;73;20504;-73
2021/10/01 02:12:51;;;;;;;;;;;13.40;99.90;;;;;;1927191;73;20399;-74
2021/10/01 02:15:18;;;;;;;;;;;13.40;99.90;;;;;;1919557;73;20159;-72
2021/10/01 02:17:47;;;;;;;;;;;13.40;99.90;;;;;;1925477;73;20162;-73
2021/10/01 02:20:15;;;;;;;;;;;13.40;99.90;;;;;;1926238;73;20122;-74
2021/10/01 02:22:42;;;;;;;;;;;13.30;99.90;;;;;;1923246;73;20133;-72
2021/10/01 02:27:45;;;;;;;;;;;13.30;99.90;;;;;;1852146;73;20511;-74
2021/10/01 02:30:13;;;;;;;;;;;13.40;99.90;;;;;;1911177;73;20428;-72
2021/10/01 02:32:44;;;;;;;;;;;13.30;99.90;;;;;;1914133;73;20127;-75
2021/10/01 02:35:11;;;;;;;;;;;13.30;99.90;;;;;;1914596;73;20260;-72
2021/10/01 02:37:38;;;;;;;;;;;13.30;99.90;;;;;;1913591;73;20175;-73
2021/10/01 02:40:07;;;;;;;;;;;13.30;99.90;;;;;;1915433;73;20555;-72
2021/10/01 02:42:34;;;;;;;;;;;13.30;99.90;;;;;;1915995;73;20565;-75
2021/10/01 02:45:01;;;;;;;;;;;13.30;99.90;;;;;;1918372;73;21244;-73
2021/10/01 02:47:29;;;;;;;;;;;13.30;99.90;;;;;;1912795;73;20168;-72
2021/10/01 02:49:56;;;;;;;;;;;13.30;99.90;;;;;;1913931;73;20110;-74
2021/10/01 02:52:25;;;;;;;;;;;13.20;99.90;;;;;;1912365;73;20180;-72
2021/10/01 02:54:56;;;;;;;;;;;13.20;99.90;;;;;;1919718;73;20172;-72
2021/10/01 02:57:24;;;;;;;;;;;13.30;99.90;;;;;;1912385;73;20143;-71
2021/10/01 02:59:52;;;;;;;;;;;13.30;99.90;;;;;;1914744;73;20156;-71
2021/10/01 03:02:21;;;;;;;;;;;13.20;99.90;;;;;;1915454;73;20466;-73
2021/10/01 03:04:49;;;;;;;;;;;13.10;99.90;;;;;;1914607;73;20246;-71
2021/10/01 03:07:17;;;;;;;;;;;13.10;99.90;;;;;;1914134;73;20215;-73
2021/10/01 03:09:45;;;;;;;;;;;13.20;99.90;;;;;;1920337;73;20181;-73
2021/10/01 03:12:12;;;;;;;;;;;13.20;99.90;;;;;;1910976;73;20241;-73
2021/10/01 03:14:40;;;;;;;;;;;13.30;99.90;;;;;;1921571;73;20259;-73
2021/10/01 03:17:08;;;;;;;;;;;13.20;99.90;;;;;;1917048;73;20227;-73
2021/10/01 03:19:35;;;;;;;;;;;13.20;99.90;;;;;;1912322;73;20509;-73
2021/10/01 03:22:02;;;;;;;;;;;13.20;99.90;;;;;;1911253;73;20390;-73
2021/10/01 03:24:29;;;;;;;;;;;13.30;99.90;;;;;;1915196;73;20122;-73
2021/10/01 03:26:56;;;;;;;;;;;13.20;99.90;;;;;;1912364;73;20439;-73
2021/10/01 03:29:23;;;;;;;;;;;13.20;99.90;;;;;;1920434;73;20214;-73
2021/10/01 03:31:50;;;;;;;;;;;13.20;99.90;;;;;;1907817;73;20182;-73
2021/10/01 03:34:18;;;;;;;;;;;13.20;99.90;;;;;;1912851;73;20150;-73
2021/10/01 03:36:45;;;;;;;;;;;13.10;99.90;;;;;;1916297;73;20158;-73
2021/10/01 03:39:12;;;;;;;;;;;13.10;99.90;;;;;;1914525;73;20216;-73
2021/10/01 03:41:39;;;;;;;;;;;13.10;99.90;;;;;;1915011;73;20169;-73
2021/10/01 03:44:06;;;;;;;;;;;13.20;99.90;;;;;;1913858;73;20135;-73
2021/10/01 03:46:33;;;;;;;;;;;13.20;99.90;;;;;;1916713;73;20176;-73
2021/10/01 03:48:59;;;;;;;;;;;13.10;99.90;;;;;;1917086;73;20217;-73
2021/10/01 03:51:26;;;;;;;;;;;13.10;99.90;;;;;;1913726;73;20337;-73
2021/10/01 03:53:55;;;;;;;;;;;13.10;99.90;;;;;;1912447;73;20214;-73
2021/10/01 03:56:21;;;;;;;;;;;13.10;99.90;;;;;;1908816;73;20425;-73
2021/10/01 03:58:49;;;;;;;;;;;13.10;99.90;;;;;;1914351;73;20246;-73
2021/10/01 04:01:16;;;;;;;;;;;13.10;99.90;;;;;;1910499;73;20391;-73
2021/10/01 04:03:43;;;;;;;;;;;13.10;99.90;;;;;;1914644;73;20207;-73
2021/10/01 04:06:10;;;;;;;;;;;13.00;99.90;;;;;;1914996;73;20128;-73
2021/10/01 04:08:37;;;;;;;;;;;13.00;99.90;;;;;;1912843;73;20205;-72
2021/10/01 04:11:04;;;;;;;;;;;12.90;99.90;;;;;;1918540;73;20392;-72
2021/10/01 04:13:31;;;;;;;;;;;13.10;99.90;;;;;;1915037;73;20490;-72
2021/10/01 04:15:57;;;;;;;;;;;13.00;99.90;;;;;;1915133;73;20205;-72
2021/10/01 04:18:24;;;;;;;;;;;13.00;99.90;;;;;;1918665;73;20608;-73
2021/10/01 04:20:51;;;;;;;;;;;13.00;99.90;;;;;;1921588;73;20153;-73
2021/10/01 04:23:18;;;;;;;;;;;13.00;99.90;;;;;;1916099;73;20148;-74
2021/10/01 04:25:45;;;;;;;;;;;13.00;99.90;;;;;;1917641;73;20181;-73
2021/10/01 04:28:12;;;;;;;;;;;12.90;99.90;;;;;;1916971;73;20228;-74
2021/10/01 04:30:43;;;;;;;;;;;13.00;99.90;;;;;;1914789;73;20128;-73
2021/10/01 04:33:17;;;;;;;;;;;13.00;99.90;;;;;;1912708;73;20556;-73
2021/10/01 04:35:41;;;;;;;;;;;13.00;99.90;;;;;;1912083;73;20282;-73
2021/10/01 04:38:08;;;;;;;;;;;12.90;99.90;;;;;;1917997;73;20126;-73
2021/10/01 04:40:35;;;;;;;;;;;12.90;99.90;;;;;;1911315;73;20868;-72
2021/10/01 04:43:02;;;;;;;;;;;12.90;99.90;;;;;;1915453;73;20179;-73
2021/10/01 04:45:29;;;;;;;;;;;12.90;99.90;;;;;;1920784;73;20396;-73
2021/10/01 04:47:56;;;;;;;;;;;13.00;99.90;;;;;;1912286;73;20212;-72
2021/10/01 04:50:22;;;;;;;;;;;13.10;99.90;;;;;;1922720;73;20255;-72
2021/10/01 04:52:49;;;;;;;;;;;12.90;99.90;;;;;;1920125;73;20228;-72
2021/10/01 04:55:16;;;;;;;;;;;12.90;99.90;;;;;;1919013;73;20167;-72
2021/10/01 04:57:43;;;;;;;;;;;12.90;99.90;;;;;;1920288;73;20106;-71
2021/10/01 05:00:10;;;;;;;;;;;12.90;99.90;;;;;;1920429;73;20175;-72
2021/10/01 05:02:37;;;;;;;;;;;12.90;99.90;;;;;;1920437;73;20117;-72
2021/10/01 05:05:04;;;;;;;;;;;13.00;99.90;;;;;;1913458;73;20131;-72
2021/10/01 05:07:37;;;;;;;;;;;13.00;99.90;;;;;;1917253;73;20102;-72
2021/10/01 05:10:05;;;;;;;;;;;13.00;99.90;;;;;;1913511;73;20197;-72
2021/10/01 05:12:32;;;;;;;;;;;12.90;99.90;;;;;;1915213;73;20228;-72
2021/10/01 05:14:59;;;;;;;;;;;12.90;99.90;;;;;;1915494;73;20176;-72
2021/10/01 05:17:25;;;;;;;;;;;12.90;99.90;;;;;;1909553;73;20248;-71
2021/10/01 05:19:52;;;;;;;;;;;12.90;99.90;;;;;;1910069;73;20255;-75
2021/10/01 05:22:19;;;;;;;;;;;12.90;99.90;;;;;;1915822;73;20171;-73
2021/10/01 05:24:46;;;;;;;;;;;13.00;99.90;;;;;;1919553;73;20244;-73
2021/10/01 05:27:13;;;;;;;;;;;13.00;99.90;;;;;;1921516;73;20208;-72
2021/10/01 05:29:39;;;;;;;;;;;13.00;99.90;;;;;;1919781;73;20228;-72
2021/10/01 05:32:07;;;;;;;;;;;13.00;99.90;;;;;;1915763;73;20182;-73
2021/10/01 05:34:33;;;;;;;;;;;12.90;99.90;;;;;;1920090;73;20215;-73
2021/10/01 05:37:02;;;;;;;;;;;13.00;99.90;;;;;;1916603;73;20126;-73
2021/10/01 05:39:29;;;;;;;;;;;13.00;99.90;;;;;;1925409;73;20161;-73
2021/10/01 05:41:56;;;;;;;;;;;12.90;99.90;;;;;;1920500;73;20121;-74
2021/10/01 05:44:23;;;;;;;;;;;12.90;99.90;;;;;;1923100;73;20186;-73
2021/10/01 05:46:50;;;;;;;;;;;12.80;99.90;;;;;;1914350;73;20110;-73
2021/10/01 05:49:24;;;;;;;;;;;12.80;99.90;;;;;;1921390;73;20171;-73
2021/10/01 05:51:51;;;;;;;;;;;12.70;99.90;;;;;;1926584;73;20149;-72
2021/10/01 05:54:21;;;;;;;;;;;12.80;99.90;;;;;;1921790;73;20268;-73
2021/10/01 05:56:52;;;;;;;;;;;12.80;99.90;;;;;;1918218;73;20579;-73
2021/10/01 05:59:20;;;;;;;;;;;12.80;99.90;;;;;;1925883;73;20222;-72
2021/10/01 06:01:47;;;;;;;;;;;12.90;99.90;;;;;;1917265;73;20200;-73
2021/10/01 06:04:14;;;;;;;;;;;12.80;99.90;;;;;;1920489;73;20153;-72
2021/10/01 06:06:41;;;;;;;;;;;12.80;99.90;;;;;;1912883;73;20221;-72
2021/10/01 06:09:14;;;;;;;;;;;12.80;99.90;;;;;;1918244;73;20172;-72
2021/10/01 06:11:41;;;;;;;;;;;12.80;99.90;;;;;;1918223;73;20409;-72
2021/10/01 06:14:08;;;;;;;;;;;12.80;99.90;;;;;;1919747;73;20175;-72
2021/10/01 06:16:35;;;;;;;;;;;12.90;99.90;;;;;;1916238;73;20176;-72
2021/10/01 06:19:03;;;;;;;;;;;12.80;99.90;;;;;;1914239;73;20121;-71
2021/10/01 06:21:30;;;;;;;;;;;12.80;99.90;;;;;;1916991;73;20222;-71
2021/10/01 06:23:57;;;;;;;;;;;12.80;99.90;;;;;;1914055;73;20183;-72
2021/10/01 06:26:24;;;;;;;;;;;12.80;99.90;;;;;;1913376;73;20198;-71
2021/10/01 06:28:50;;;;;;;;;;;12.80;99.90;;;;;;1915632;73;20234;-71
2021/10/01 06:31:17;;;;;;;;;;;12.80;99.90;;;;;;1920550;73;20518;-71
2021/10/01 06:33:44;;;;;;;;;;;12.90;99.90;;;;;;1891129;73;20272;-72
2021/10/01 06:36:14;;;;;;;;;;;12.80;99.90;;;;;;1876378;74;20219;-72
2021/10/01 06:38:40;;;;;;;;;;;12.80;99.90;;;;;;1874538;75;20161;-71
2021/10/01 06:41:07;;;;;;;;;;;12.90;99.90;;;;;;1876776;75;20165;-72
2021/10/01 06:43:34;;;;;;;;;;;12.90;99.90;;;;;;1898782;73;20244;-71
2021/10/01 06:46:04;;;;;;;;;;;12.80;99.90;;;;;;1916973;73;20220;-70
2021/10/01 06:51:41;;;;;;;;;;;12.90;99.90;;;;;;1862803;73;20162;-70
2021/10/01 07:35:11;;;;;;;;;;;13.20;99.90;;;;;;1917866;73;20217;-71
2021/10/01 08:20:50;;;;;;;;;;;13.80;99.90;;;;;;1842088;73;20125;-70
2021/10/01 08:23:17;;;;;;;;;;;13.90;99.90;;;;;;1916625;73;20263;-71
2021/10/01 08:25:44;;;;;;;;;;;14.00;99.90;;;;;;1919095;73;20212;-72
2021/10/01 08:28:11;;;;;;;;;;;14.00;99.90;;;;;;1921190;73;20662;-71
2021/10/01 08:30:38;;;;;;;;;;;14.10;99.90;;;;;;1916474;73;20133;-72
2021/10/01 08:33:05;;;;;;;;;;;14.10;99.90;;;;;;1920419;73;20195;-71
2021/10/01 08:35:32;;;;;;;;;;;14.20;99.90;;;;;;1918422;73;20181;-72
2021/10/01 08:38:00;;;;;;;;;;;14.30;99.90;;;;;;1915184;73;20282;-72
2021/10/01 08:40:27;;;;;;;;;;;14.30;99.90;;;;;;1917377;73;20234;-72
2021/10/01 08:42:54;;;;;;;;;;;14.40;99.90;;;;;;1915248;73;20127;-71
2021/10/01 08:45:22;;;;;;;;;;;14.50;99.90;;;;;;1913597;73;20211;-72
2021/10/01 08:47:49;;;;;;;;;;;14.50;99.90;;;;;;1916927;73;20228;-71
2021/10/01 08:50:18;;;;;;;;;;;14.50;99.90;;;;;;1913801;73;20124;-69
2021/10/01 08:52:45;;;;;;;;;;;14.50;99.90;;;;;;1914381;73;20230;-72
2021/10/01 08:55:14;;;;;;;;;;;14.60;99.90;;;;;;1918142;73;20165;-70
2021/10/01 08:57:42;;;;;;;;;;;14.70;99.90;;;;;;1910291;73;20544;-70
2021/10/01 09:00:11;;;;;;;;;;;14.80;99.90;;;;;;1922662;73;20462;-71
2021/10/01 09:02:38;;;;;;;;;;;14.90;99.90;;;;;;1919586;73;20206;-71
2021/10/01 09:05:05;;;;;;;;;;;14.90;99.90;;;;;;1917271;73;20182;-71
2021/10/01 09:07:32;;;;;;;;;;;14.90;99.90;;;;;;1916117;73;20165;-71
2021/10/01 09:09:59;;;;;;;;;;;14.90;99.90;;;;;;1917148;73;20256;-71
2021/10/01 09:12:26;;;;;;;;;;;15.10;99.90;;;;;;1917969;73;20243;-72
2021/10/01 09:14:56;;;;;;;;;;;15.10;99.90;;;;;;1915872;73;20368;-72
2021/10/01 09:17:24;;;;;;;;;;;15.20;99.90;;;;;;1918189;73;20137;-72
2021/10/01 09:19:52;;;;;;;;;;;15.30;99.90;;;;;;1917693;73;21213;-71
2021/10/01 09:22:26;;;;;;;;;;;15.40;99.90;;;;;;1922373;73;20529;-79
2021/10/01 09:24:52;;;;;;;;;;;15.50;99.90;;;;;;1917046;73;20118;-75
2021/10/01 09:27:21;;;;;;;;;;;15.60;99.90;;;;;;1915434;73;20635;-77
2021/10/01 09:29:49;;;;;;;;;;;15.80;99.90;;;;;;1914977;73;20286;-77
2021/10/01 09:32:16;;;;;;;;;;;15.90;99.90;;;;;;1919360;73;20220;-76
2021/10/01 09:34:44;;;;;;;;;;;16.00;99.90;;;;;;1920564;73;20122;-71
2021/10/01 09:37:13;;;;;;;;;;;16.10;99.90;;;;;;1922369;73;20161;-77
2021/10/01 09:39:41;;;;;;;;;;;16.10;99.90;;;;;;1922652;73;20712;-72
2021/10/01 09:42:16;;;;;;;;;;;16.20;99.90;;;;;;1919672;73;20714;-71
2021/10/01 09:44:53;;;;;;;;;;;16.30;99.90;;;;;;1919076;73;20239;-70
2021/10/01 09:47:30;;;;;;;;;;;16.30;99.90;;;;;;1916761;73;20387;-70
2021/10/01 09:49:58;;;;;;;;;;;16.20;99.90;;;;;;1921301;73;20171;-71
2021/10/01 09:52:26;;;;;;;;;;;16.10;99.90;;;;;;1922294;73;20122;-72
2021/10/01 09:54:55;;;;;;;;;;;16.10;99.90;;;;;;1918150;73;20407;-79
2021/10/01 09:57:22;;;;;;;;;;;16.20;99.90;;;;;;1909167;73;20226;-75
2021/10/01 09:59:50;;;;;;;;;;;16.40;99.90;;;;;;1920687;73;20169;-79
2021/10/01 10:02:16;;;;;;;;;;;16.40;99.90;;;;;;1920350;73;20205;-74
2021/10/01 10:04:48;;;;;;;;;;;16.50;99.90;;;;;;1917921;73;20234;-76
2021/10/01 10:07:25;;;;;;;;;;;16.60;99.90;;;;;;1919284;73;20168;-76
2021/10/01 10:09:53;;;;;;;;;;;16.80;99.90;;;;;;1916624;73;21175;-73
2021/10/01 10:12:24;;;;;;;;;;;16.80;99.90;;;;;;1916717;73;20153;-73
2021/10/01 10:14:53;;;;;;;;;;;16.90;99.90;;;;;;1913842;73;20173;-71
2021/10/01 10:17:21;;;;;;;;;;;17.00;99.90;;;;;;1913889;73;20193;-72
2021/10/01 10:19:49;;;;;;;;;;;17.00;99.90;;;;;;1912847;73;20114;-72
2021/10/01 10:22:15;;;;;;;;;;;16.90;99.90;;;;;;1919969;73;20203;-73
2021/10/01 10:24:42;;;;;;;;;;;17.00;99.90;;;;;;1917840;73;20537;-76
2021/10/01 10:27:09;;;;;;;;;;;17.00;99.90;;;;;;1918902;73;20210;-75
2021/10/01 10:29:38;;;;;;;;;;;17.10;99.90;;;;;;1919212;73;20392;-72
2021/10/01 10:32:07;;;;;;;;;;;17.00;99.90;;;;;;1912051;73;20207;-74
2021/10/01 10:34:33;;;;;;;;;;;17.10;99.90;;;;;;1918624;73;20450;-73
2021/10/01 10:37:10;;;;;;;;;;;17.10;99.90;;;;;;1914017;73;20137;-73
2021/10/01 10:39:38;;;;;;;;;;;17.20;99.90;;;;;;1911852;73;20285;-72
2021/10/01 10:42:09;;;;;;;;;;;17.40;99.90;;;;;;1904199;73;20127;-71
2021/10/01 10:44:47;;;;;;;;;;;17.40;99.90;;;;;;1915371;73;20218;-72
2021/10/01 10:47:18;;;;;;;;;;;17.50;99.90;;;;;;1913567;73;20496;-72
2021/10/01 10:49:45;;;;;;;;;;;17.50;99.90;;;;;;1849024;73;20360;-72
2021/10/01 10:52:17;;;;;;;;;;;17.50;99.90;;;;;;1911475;73;20406;-72
2021/10/01 10:54:45;;;;;;;;;;;17.60;99.90;;;;;;1910017;73;20207;-72
2021/10/01 10:57:25;;;;;;;;;;;17.70;99.90;;;;;;1915465;73;20481;-72
2021/10/01 10:59:49;;;;;;;;;;;17.70;99.90;;;;;;1910700;73;20201;-72
2021/10/01 11:02:29;;;;;;;;;;;17.60;99.90;;;;;;1911378;73;20155;-72
2021/10/01 11:05:12;;;;;;;;;;;17.50;99.90;;;;;;1908606;73;20244;-72
2021/10/01 11:07:52;;;;;;;;;;;17.50;99.90;;;;;;1914845;73;20191;-72
2021/10/01 11:10:36;;;;;;;;;;;17.40;99.90;;;;;;1909415;73;20214;-72
2021/10/01 11:13:22;;;;;;;;;;;17.40;99.90;;;;;;1911738;73;20507;-71
2021/10/01 11:15:57;;;;;;;;;;;17.50;99.90;;;;;;1907060;73;20192;-72
2021/10/01 11:18:26;;;;;;;;;;;17.50;99.90;;;;;;1893163;73;20857;-71
2021/10/01 11:20:52;;;;;;;;;;;17.60;99.90;;;;;;1911770;73;20180;-72
2021/10/01 11:23:20;;;;;;;;;;;17.90;99.90;;;;;;1909979;73;20227;-72
2021/10/01 11:25:47;;;;;;;;;;;18.10;99.90;;;;;;1909062;73;20213;-72
2021/10/01 11:28:14;;;;;;;;;;;18.30;99.90;;;;;;1913591;73;20164;-72
2021/10/01 11:30:42;;;;;;;;;;;18.40;99.90;;;;;;1910427;73;20214;-71
2021/10/01 11:33:09;;;;;;;;;;;18.50;99.90;;;;;;1916553;73;20182;-72
2021/10/01 11:35:40;;;;;;;;;;;18.90;99.90;;;;;;1917617;73;20120;-72
2021/10/01 11:38:10;;;;;;;;;;;18.90;99.90;;;;;;1903324;73;20244;-72
2021/10/01 11:40:36;;;;;;;;;;;18.70;99.90;;;;;;1911547;73;20530;-72
2021/10/01 11:43:02;;;;;;;;;;;18.50;99.90;;;;;;1909339;73;20482;-72
2021/10/01 11:45:32;;;;;;;;;;;18.50;99.90;;;;;;1910015;73;20168;-72
2021/10/01 11:48:01;;;;;;;;;;;18.40;99.90;;;;;;1915320;74;20168;-72
2021/10/01 11:50:29;;;;;;;;;;;18.50;99.90;;;;;;1919011;73;20164;-71
2021/10/01 11:52:58;;;;;;;;;;;18.50;99.90;;;;;;1915688;73;20199;-71
2021/10/01 11:55:26;;;;;;;;;;;18.40;99.90;;;;;;1911846;73;20178;-71
2021/10/01 11:57:52;;;;;;;;;;;18.40;99.90;;;;;;1911856;73;20110;-71
2021/10/01 12:00:22;;;;;;;;;;;18.50;99.90;;;;;;1910945;74;20167;-71
2021/10/01 12:02:49;;;;;;;;;;;18.60;99.90;;;;;;1914640;73;20211;-72
2021/10/01 12:05:35;;;;;;;;;;;18.90;99.90;;;;;;1912995;73;20303;-72
2021/10/01 12:08:12;;;;;;;;;;;18.90;99.90;;;;;;1911163;73;20196;-72
2021/10/01 12:10:43;;;;;;;;;;;19.00;99.90;;;;;;1913150;73;20218;-72
2021/10/01 12:13:23;;;;;;;;;;;19.20;99.90;;;;;;1913754;73;20191;-71
2021/10/01 12:15:59;;;;;;;;;;;19.20;99.90;;;;;;1913492;73;20176;-72
2021/10/01 12:18:30;;;;;;;;;;;19.30;99.90;;;;;;1916634;73;20125;-72
2021/10/01 12:20:58;;;;;;;;;;;18.90;99.90;;;;;;1916091;73;20225;-72
2021/10/01 12:23:26;;;;;;;;;;;18.80;99.90;;;;;;1914004;73;20153;-72
2021/10/01 12:25:54;;;;;;;;;;;18.70;99.90;;;;;;1913934;73;20212;-72
2021/10/01 12:28:21;;;;;;;;;;;18.60;99.90;;;;;;1912512;73;20164;-72
2021/10/01 12:31:02;;;;;;;;;;;18.60;99.90;;;;;;1911979;73;20182;-71
2021/10/01 12:33:29;;;;;;;;;;;18.60;99.90;;;;;;1910992;73;20204;-72
2021/10/01 12:35:55;;;;;;;;;;;18.70;99.90;;;;;;1888774;73;20172;-72
2021/10/01 12:38:23;;;;;;;;;;;18.60;99.90;;;;;;1876013;76;20206;-72
2021/10/01 12:41:08;;;;;;;;;;;19.00;99.90;;;;;;1877129;76;20507;-72
2021/10/01 12:43:42;;;;;;;;;;;19.20;99.90;;;;;;1877619;76;20193;-72
2021/10/01 12:46:09;;;;;;;;;;;19.40;99.90;;;;;;1870845;76;20222;-72
2021/10/01 12:48:36;;;;;;;;;;;19.60;99.90;;;;;;1867199;76;20215;-72
2021/10/01 12:51:05;;;;;;;;;;;19.80;99.90;;;;;;1870777;74;20164;-72
2021/10/01 12:53:32;;;;;;;;;;;19.70;99.90;;;;;;1865455;76;20241;-72
2021/10/01 12:56:00;;;;;;;;;;;19.30;99.90;;;;;;1864197;76;20820;-72
2021/10/01 12:58:27;;;;;;;;;;;19.10;99.90;;;;;;1864812;76;20182;-72
2021/10/01 13:00:54;;;;;;;;;;;19.10;99.90;;;;;;1866789;76;20237;-72
2021/10/01 13:03:21;;;;;;;;;;;18.90;99.90;;;;;;1867501;76;20488;-71
2021/10/01 13:05:48;;;;;;;;;;;18.90;99.90;;;;;;1866495;75;20124;-71
2021/10/01 13:08:17;;;;;;;;;;;18.80;99.90;;;;;;1870996;76;20492;-72
2021/10/01 13:10:49;;;;;;;;;;;18.70;99.90;;;;;;1868630;76;20119;-72
2021/10/01 13:13:20;;;;;;;;;;;18.60;99.90;;;;;;1864583;75;20160;-71
2021/10/01 13:15:55;;;;;;;;;;;18.40;99.90;;;;;;1868754;76;20214;-71
2021/10/01 13:18:30;;;;;;;;;;;18.40;99.90;;;;;;1868876;76;20240;-71
2021/10/01 13:20:58;;;;;;;;;;;18.30;99.90;;;;;;1866278;76;20222;-73
2021/10/01 13:23:36;;;;;;;;;;;18.20;99.90;;;;;;1868529;76;20172;-73
2021/10/01 13:26:11;;;;;;;;;;;18.20;99.90;;;;;;1867378;76;20185;-72
2021/10/01 13:28:38;;;;;;;;;;;18.10;99.90;;;;;;1872795;76;20128;-73
2021/10/01 13:31:05;;;;;;;;;;;18.10;99.90;;;;;;1873399;75;20503;-72
2021/10/01 13:33:31;;;;;;;;;;;18.10;99.90;;;;;;1868732;74;20181;-72
2021/10/01 13:35:59;;;;;;;;;;;18.00;99.90;;;;;;1871040;74;20213;-72
2021/10/01 13:38:33;;;;;;;;;;;18.00;99.90;;;;;;1869085;76;20128;-72
2021/10/01 13:41:01;;;;;;;;;;;18.00;99.90;;;;;;1869661;76;20175;-72
2021/10/01 13:43:28;;;;;;;;;;;18.00;99.90;;;;;;1863838;76;20213;-72
2021/10/01 13:45:56;;;;;;;;;;;18.00;99.90;;;;;;1864047;76;20204;-72
2021/10/01 13:48:24;;;;;;;;;;;18.00;99.90;;;;;;1865326;76;20169;-72
2021/10/01 13:50:51;;;;;;;;;;;18.00;99.90;;;;;;1867443;74;20164;-72
2021/10/01 13:53:19;;;;;;;;;;;18.00;99.90;;;;;;1867488;76;20477;-72
2021/10/01 13:55:46;;;;;;;;;;;18.00;99.90;;;;;;1866824;76;20526;-72
2021/10/01 13:58:13;;;;;;;;;;;18.00;99.90;;;;;;1865636;76;20222;-72
2021/10/01 14:00:40;;;;;;;;;;;18.10;99.90;;;;;;1866225;76;20226;-72
2021/10/01 14:03:07;;;;;;;;;;;18.10;99.90;;;;;;1866566;76;20134;-72
2021/10/01 14:05:34;;;;;;;;;;;18.10;99.90;;;;;;1867678;74;20256;-72
2021/10/01 14:08:01;;;;;;;;;;;18.10;99.90;;;;;;1871030;76;20158;-72
2021/10/01 14:10:30;;;;;;;;;;;18.20;99.90;;;;;;1868444;76;20193;-72
2021/10/01 14:12:58;;;;;;;;;;;18.20;99.90;;;;;;1864456;76;20535;-72
2021/10/01 14:15:26;;;;;;;;;;;18.20;99.90;;;;;;1865727;76;20554;-72
2021/10/01 14:17:53;;;;;;;;;;;18.30;99.90;;;;;;1868745;76;20601;-72
2021/10/01 14:20:21;;;;;;;;;;;18.30;99.90;;;;;;1868615;74;20502;-72
2021/10/01 14:22:48;;;;;;;;;;;18.20;99.90;;;;;;1870506;76;20372;-72
2021/10/01 14:25:16;;;;;;;;;;;18.20;99.90;;;;;;1866901;76;20471;-72
2021/10/01 14:27:43;;;;;;;;;;;18.20;99.90;;;;;;1867161;76;20486;-72
2021/10/01 14:30:12;;;;;;;;;;;18.20;99.90;;;;;;1868946;76;20468;-72
2021/10/01 14:32:39;;;;;;;;;;;18.30;99.90;;;;;;1870399;76;20215;-72
2021/10/01 14:35:07;;;;;;;;;;;18.30;99.90;;;;;;1868799;74;20165;-72
2021/10/01 14:37:34;;;;;;;;;;;18.20;99.90;;;;;;1866985;74;20204;-72
2021/10/01 14:40:00;;;;;;;;;;;18.20;99.90;;;;;;1868032;76;20299;-72
2021/10/01 14:42:27;;;;;;;;;;;18.20;99.90;;;;;;1866127;76;20236;-72
2021/10/01 14:44:54;;;;;;;;;;;18.20;99.90;;;;;;1865286;76;20167;-72
2021/10/01 14:47:21;;;;;;;;;;;18.20;99.90;;;;;;1867233;76;20185;-72
2021/10/01 14:49:48;;;;;;;;;;;18.20;99.90;;;;;;1869036;75;20206;-72
2021/10/01 14:52:14;;;;;;;;;;;18.20;99.90;;;;;;1870227;76;20163;-72
2021/10/01 14:54:41;;;;;;;;;;;18.20;99.90;;;;;;1868670;76;20175;-72
2021/10/01 14:57:08;;;;;;;;;;;18.20;99.90;;;;;;1864965;76;20160;-72
2021/10/01 14:59:35;;;;;;;;;;;18.20;99.90;;;;;;1866492;76;20238;-72
2021/10/01 15:02:02;;;;;;;;;;;18.10;99.90;;;;;;1868541;74;20486;-72
2021/10/01 15:04:28;;;;;;;;;;;18.20;99.90;;;;;;1866216;76;20250;-72
2021/10/01 15:06:55;;;;;;;;;;;18.20;99.90;;;;;;1866274;76;20215;-72
2021/10/01 15:09:22;;;;;;;;;;;18.10;99.90;;;;;;1868418;76;20192;-72
2021/10/01 15:11:49;;;;;;;;;;;18.10;99.90;;;;;;1866884;76;20247;-72
2021/10/01 15:14:16;;;;;;;;;;;18.10;99.90;;;;;;1865149;76;20574;-72
2021/10/01 15:16:42;;;;;;;;;;;18.00;99.90;;;;;;1870669;75;20151;-72
2021/10/01 15:19:09;;;;;;;;;;;18.00;99.90;;;;;;1866757;76;20651;-72
2021/10/01 15:21:36;;;;;;;;;;;18.00;99.90;;;;;;1870222;76;20165;-72
2021/10/01 15:24:03;;;;;;;;;;;18.00;99.90;;;;;;1870384;76;20112;-72
2021/10/01 15:26:30;;;;;;;;;;;17.90;99.90;;;;;;1866890;75;20178;-72
2021/10/01 15:28:58;;;;;;;;;;;18.00;99.90;;;;;;1868505;76;20200;-72
2021/10/01 15:31:24;;;;;;;;;;;17.90;99.90;;;;;;1869809;74;20212;-72
2021/10/01 15:33:51;;;;;;;;;;;17.90;99.90;;;;;;1865237;76;20129;-72
2021/10/01 15:36:20;;;;;;;;;;;17.90;99.90;;;;;;1868869;76;20220;-72
2021/10/01 15:38:46;;;;;;;;;;;17.90;99.90;;;;;;1867289;76;20485;-72
2021/10/01 15:41:13;;;;;;;;;;;17.90;99.90;;;;;;1868605;76;20116;-72
2021/10/01 15:43:40;;;;;;;;;;;17.80;99.90;;;;;;1867803;75;20169;-72
2021/10/01 15:46:07;;;;;;;;;;;17.80;99.90;;;;;;1874398;75;20391;-72
2021/10/01 15:48:34;;;;;;;;;;;17.80;99.90;;;;;;1869268;76;20233;-72
2021/10/01 15:51:01;;;;;;;;;;;17.80;99.90;;;;;;1867048;76;20617;-72
2021/10/01 15:53:28;;;;;;;;;;;17.80;99.90;;;;;;1866142;76;20166;-72